createdAt,value
2019-03-10T00:00:45.459Z,44.06
2019-03-10T00:03:36.288Z,43.76
2019-03-10T00:06:07.129Z,43.57
2019-03-10T00:08:40.955Z,43.81
2019-03-10T00:11:12.848Z,43.88
2019-03-10T00:13:43.605Z,43.66
2019-03-10T00:16:14.441Z,42.92
2019-03-10T00:21:55.687Z,42.47
2019-03-10T00:24:26.479Z,41.93
2019-03-10T00:27:17.368Z,41.64
2019-03-10T00:29:49.151Z,41.30
2019-03-10T00:35:21.460Z,42.43
2019-03-10T00:41:21.457Z,41.63
2019-03-10T00:44:31.050Z,41.50
2019-03-10T00:47:39.865Z,41.69
2019-03-10T00:50:34.144Z,41.58
2019-03-10T00:53:23.946Z,40.50
2019-03-10T00:56:14.107Z,39.33
2019-03-10T00:58:45.118Z,39.77
2019-03-10T01:01:16.006Z,40.15
2019-03-10T01:04:39.281Z,40.21
2019-03-10T01:07:02.194Z,40.61
2019-03-10T01:09:52.347Z,40.44
2019-03-10T01:12:43.443Z,40.27
2019-03-10T01:15:35.806Z,39.87
2019-03-10T01:18:07.383Z,39.29
2019-03-10T01:20:52.392Z,39.84
2019-03-10T01:23:13.422Z,39.57
2019-03-10T01:26:03.254Z,39.97
2019-03-10T01:28:34.041Z,40.17
2019-03-10T01:31:19.672Z,40.23
2019-03-10T01:37:03.666Z,40.57
2019-03-10T01:39:34.512Z,40.78
2019-03-10T01:42:24.439Z,41.14
2019-03-10T01:48:08.661Z,41.39
2019-03-10T01:50:41.595Z,41.12
2019-03-10T01:53:31.984Z,41.44
2019-03-10T01:59:03.586Z,42.19
2019-03-10T02:01:34.409Z,42.14
2019-03-10T02:04:24.987Z,41.88
2019-03-10T02:10:27.159Z,41.49
2019-03-10T02:13:02.693Z,41.25
2019-03-10T02:22:17.984Z,41.10
2019-03-10T02:24:48.732Z,40.90
2019-03-10T02:27:24.185Z,40.97
2019-03-10T02:36:19.449Z,41.77
2019-03-10T02:39:21.950Z,41.84
2019-03-10T02:41:53.888Z,41.19
2019-03-10T02:47:08.087Z,40.43
2019-03-10T02:49:38.787Z,40.78
2019-03-10T02:52:10.024Z,40.84
2019-03-10T02:54:40.778Z,40.37
2019-03-10T02:57:11.606Z,40.29
2019-03-10T02:59:42.466Z,39.29
2019-03-10T03:02:13.222Z,38.91
2019-03-10T03:04:43.997Z,38.92
2019-03-10T03:07:15.568Z,39.10
2019-03-10T03:09:46.351Z,39.89
2019-03-10T03:12:17.087Z,40.15
2019-03-10T03:14:53.668Z,39.84
2019-03-10T03:17:24.024Z,40.39
2019-03-10T03:19:55.640Z,41.25
2019-03-10T03:22:26.317Z,41.68
2019-03-10T03:24:57.986Z,41.79
2019-03-10T03:27:29.007Z,41.80
2019-03-10T03:30:01.776Z,41.54
2019-03-10T03:32:32.598Z,40.70
2019-03-10T03:35:28.940Z,40.76
2019-03-10T03:38:00.307Z,40.53
2019-03-10T03:40:31.188Z,40.58
2019-03-10T03:43:02.908Z,40.78
2019-03-10T03:45:33.703Z,41.19
2019-03-10T03:48:04.699Z,40.75
2019-03-10T03:50:36.609Z,41.15
2019-03-10T03:53:08.776Z,41.75
2019-03-10T03:55:39.651Z,42.09
2019-03-10T03:58:11.442Z,42.50
2019-03-10T04:00:45.960Z,43.12
2019-03-10T04:03:17.548Z,43.57
2019-03-10T04:05:48.283Z,43.71
2019-03-10T04:08:19.035Z,43.84
2019-03-10T04:10:53.494Z,43.90
2019-03-10T04:13:25.264Z,44.10
2019-03-10T04:15:56.866Z,44.41
2019-03-10T04:18:27.635Z,44.24
2019-03-10T04:21:00.203Z,44.37
2019-03-10T04:23:31.497Z,44.22
2019-03-10T04:26:03.394Z,43.93
2019-03-10T04:28:34.887Z,44.25
2019-03-10T04:31:05.746Z,44.77
2019-03-10T04:33:37.910Z,45.40
2019-03-10T04:36:09.077Z,46.24
2019-03-10T04:38:39.876Z,46.34
2019-03-10T04:41:10.653Z,46.63
2019-03-10T04:43:42.619Z,46.71
2019-03-10T04:46:15.371Z,46.79
2019-03-10T04:48:47.154Z,47.63
2019-03-10T04:51:17.863Z,47.31
2019-03-10T04:53:49.519Z,47.31
2019-03-10T04:56:49.367Z,48.04
2019-03-10T04:59:21.016Z,47.87
2019-03-10T05:01:52.257Z,48.20
2019-03-10T05:04:23.085Z,48.60
2019-03-10T05:06:54.777Z,48.79
2019-03-10T05:09:25.532Z,49.18
2019-03-10T05:11:56.367Z,49.59
2019-03-10T05:14:28.042Z,49.94
2019-03-10T05:17:01.111Z,50.23
2019-03-10T05:19:31.917Z,50.12
2019-03-10T05:22:02.648Z,50.19
2019-03-10T05:24:33.420Z,50.64
2019-03-10T05:27:05.043Z,51.09
2019-03-10T05:29:36.642Z,51.41
2019-03-10T05:32:07.360Z,51.56
2019-03-10T05:34:38.706Z,51.64
2019-03-10T05:37:10.451Z,51.90
2019-03-10T05:39:43.591Z,51.94
2019-03-10T05:42:15.196Z,51.90
2019-03-10T05:44:45.969Z,52.01
2019-03-10T05:47:17.915Z,52.11
2019-03-10T05:49:48.583Z,52.31
2019-03-10T05:52:19.337Z,52.69
2019-03-10T05:54:52.399Z,52.69
2019-03-10T05:57:23.113Z,52.88
2019-03-10T05:59:53.955Z,52.91
2019-03-10T06:02:25.196Z,53.20
2019-03-10T06:04:56.939Z,53.62
2019-03-10T06:07:28.499Z,53.56
2019-03-10T06:09:59.180Z,53.84
2019-03-10T06:12:29.912Z,54.28
2019-03-10T06:15:01.803Z,54.19
2019-03-10T06:17:35.019Z,55.43
2019-03-10T06:20:08.366Z,55.43
2019-03-10T06:22:40.246Z,54.72
2019-03-10T06:25:18.844Z,54.90
2019-03-10T06:27:49.035Z,54.51
2019-03-10T06:30:22.143Z,53.88
2019-03-10T06:32:52.811Z,53.33
2019-03-10T06:35:23.961Z,54.42
2019-03-10T06:37:53.649Z,55.16
2019-03-10T06:40:31.589Z,55.35
2019-03-10T06:42:55.366Z,55.68
2019-03-10T06:45:45.210Z,56.62
2019-03-10T06:48:16.360Z,57.34
2019-03-10T06:50:48.547Z,57.43
2019-03-10T06:53:19.467Z,58.04
2019-03-10T06:55:50.239Z,58.29
2019-03-10T06:58:21.098Z,58.63
2019-03-10T07:00:52.799Z,58.56
2019-03-10T07:03:24.538Z,58.34
2019-03-10T07:05:56.442Z,58.76
2019-03-10T07:08:27.342Z,58.35
2019-03-10T07:10:58.182Z,59.27
2019-03-10T07:13:30.011Z,58.55
2019-03-10T07:16:02.732Z,58.49
2019-03-10T07:18:33.741Z,58.97
2019-03-10T07:21:04.570Z,59.45
2019-03-10T07:23:34.563Z,59.24
2019-03-10T07:26:08.980Z,59.24
2019-03-10T07:29:04.191Z,57.89
2019-03-10T07:31:50.371Z,57.89
2019-03-10T07:34:40.715Z,58.29
2019-03-10T07:37:29.539Z,59.03
2019-03-10T07:40:28.149Z,59.59
2019-03-10T07:43:17.587Z,59.39
2019-03-10T07:46:10.614Z,59.93
2019-03-10T07:48:52.191Z,60.27
2019-03-10T07:51:39.524Z,60.27
2019-03-10T07:54:29.916Z,59.54
2019-03-10T07:57:18.396Z,59.44
2019-03-10T08:00:06.373Z,60.09
2019-03-10T08:02:45.748Z,60.18
2019-03-10T08:05:33.661Z,60.29
2019-03-10T08:08:16.260Z,60.53
2019-03-10T08:10:59.044Z,59.87
2019-03-10T08:13:49.841Z,59.03
2019-03-10T08:16:48.613Z,59.29
2019-03-10T08:19:50.799Z,59.20
2019-03-10T08:22:40.404Z,59.38
2019-03-10T08:25:39.198Z,59.41
2019-03-10T08:28:28.050Z,59.13
2019-03-10T08:31:32.991Z,59.26
2019-03-10T08:34:22.726Z,59.10
2019-03-10T08:37:21.680Z,59.10
2019-03-10T08:40:19.367Z,58.32
2019-03-10T08:43:16.118Z,59.06
2019-03-10T08:46:14.875Z,58.57
2019-03-10T08:49:03.410Z,57.92
2019-03-10T08:51:46.259Z,57.92
2019-03-10T08:54:41.497Z,58.76
2019-03-10T08:57:26.639Z,58.02
2019-03-10T09:00:17.790Z,57.21
2019-03-10T09:03:20.201Z,57.31
2019-03-10T09:06:05.948Z,57.32
2019-03-10T09:09:02.598Z,57.96
2019-03-10T09:11:45.283Z,57.52
2019-03-10T09:14:41.260Z,57.51
2019-03-10T09:17:47.393Z,56.22
2019-03-10T09:20:47.333Z,56.42
2019-03-10T09:23:45.303Z,56.33
2019-03-10T09:26:26.134Z,56.80
2019-03-10T09:29:14.867Z,55.87
2019-03-10T09:32:15.870Z,56.74
2019-03-10T09:34:59.974Z,55.70
2019-03-10T09:37:47.907Z,56.29
2019-03-10T09:40:46.723Z,55.55
2019-03-10T09:43:37.372Z,54.76
2019-03-10T09:46:34.536Z,55.60
2019-03-10T09:49:15.194Z,54.44
2019-03-10T09:51:58.500Z,55.28
2019-03-10T09:55:01.890Z,55.60
2019-03-10T09:57:54.508Z,55.18
2019-03-10T10:00:48.078Z,55.87
2019-03-10T10:03:39.613Z,55.36
2019-03-10T10:06:25.208Z,55.19
2019-03-10T10:09:35.883Z,55.30
2019-03-10T10:12:31.488Z,53.18
2019-03-10T10:15:27.447Z,53.33
2019-03-10T10:18:18.463Z,53.50
2019-03-10T10:21:26.176Z,54.22
2019-03-10T10:24:12.595Z,53.86
2019-03-10T10:26:53.916Z,54.87
2019-03-10T10:29:59.406Z,53.81
2019-03-10T10:33:00.770Z,52.87
2019-03-10T10:36:01.428Z,55.15
2019-03-10T10:38:49.779Z,57.09
2019-03-10T10:41:41.067Z,57.94
2019-03-10T10:44:35.825Z,58.08
2019-03-10T10:47:27.901Z,57.09
2019-03-10T10:50:35.573Z,56.21
2019-03-10T10:53:35.076Z,55.92
2019-03-10T10:56:28.775Z,55.92
2019-03-10T10:59:19.250Z,56.04
2019-03-10T11:02:09.412Z,56.92
2019-03-10T11:05:07.159Z,56.97
2019-03-10T11:08:00.989Z,54.94
2019-03-10T11:10:55.772Z,53.87
2019-03-10T11:13:45.294Z,52.56
2019-03-10T11:16:39.535Z,52.34
2019-03-10T11:19:17.076Z,52.56
2019-03-10T11:22:09.719Z,52.51
2019-03-10T11:24:49.546Z,53.89
2019-03-10T11:27:32.045Z,53.88
2019-03-10T11:30:37.578Z,54.02
2019-03-10T11:33:16.884Z,55.13
2019-03-10T11:36:11.984Z,54.52
2019-03-10T11:39:12.004Z,56.18
2019-03-10T11:41:51.574Z,56.31
2019-03-10T11:44:41.065Z,55.05
2019-03-10T11:47:28.970Z,52.42
2019-03-10T11:50:21.752Z,51.11
2019-03-10T11:53:03.436Z,50.10
2019-03-10T11:55:53.295Z,48.34
2019-03-10T11:58:54.753Z,47.23
2019-03-10T12:01:55.278Z,45.21
2019-03-10T12:04:47.762Z,44.30
2019-03-10T12:07:51.881Z,44.59
2019-03-10T12:10:29.335Z,45.53
2019-03-10T12:13:04.593Z,47.52
2019-03-10T12:15:38.604Z,48.98
2019-03-10T12:18:10.599Z,49.32
2019-03-10T12:20:42.881Z,48.94
2019-03-10T12:23:15.085Z,48.36
2019-03-10T12:25:56.248Z,47.21
2019-03-10T12:28:29.433Z,44.95
2019-03-10T12:31:03.374Z,44.95
2019-03-10T12:33:38.316Z,45.99
2019-03-10T12:36:11.193Z,47.14
2019-03-10T12:38:45.632Z,45.16
2019-03-10T12:41:17.624Z,45.79
2019-03-10T12:43:48.583Z,45.01
2019-03-10T12:46:27.048Z,44.99
2019-03-10T12:49:00.059Z,45.67
2019-03-10T12:51:32.212Z,44.76
2019-03-10T12:54:07.370Z,44.52
2019-03-10T12:56:45.867Z,41.96
2019-03-10T12:59:21.855Z,42.82
2019-03-10T13:02:04.057Z,41.73
2019-03-10T13:04:36.945Z,40.85
2019-03-10T13:07:10.086Z,40.44
2019-03-10T13:09:52.873Z,38.89
2019-03-10T13:12:24.745Z,38.69
2019-03-10T13:15:06.730Z,39.90
2019-03-10T13:17:38.428Z,39.57
2019-03-10T13:20:13.580Z,39.53
2019-03-10T13:22:45.819Z,39.73
2019-03-10T13:25:20.542Z,38.95
2019-03-10T13:27:54.343Z,39.80
2019-03-10T13:30:31.657Z,38.64
2019-03-10T13:33:06.100Z,38.23
2019-03-10T13:35:39.360Z,37.67
2019-03-10T13:38:10.778Z,37.63
2019-03-10T13:40:42.708Z,37.28
2019-03-10T13:43:14.436Z,36.80
2019-03-10T13:45:46.147Z,37.65
2019-03-10T13:48:22.072Z,36.01
2019-03-10T13:50:53.935Z,35.66
2019-03-10T13:53:30.486Z,35.03
2019-03-10T13:56:05.345Z,35.61
2019-03-10T13:58:48.775Z,35.61
2019-03-10T14:01:25.484Z,34.95
2019-03-10T14:04:05.215Z,34.26
2019-03-10T14:06:36.749Z,32.98
2019-03-10T14:09:09.979Z,32.78
2019-03-10T14:11:49.200Z,33.08
2019-03-10T14:14:24.368Z,32.95
2019-03-10T14:16:55.659Z,31.99
2019-03-10T14:19:28.694Z,32.62
2019-03-10T14:21:59.674Z,32.38
2019-03-10T14:24:35.378Z,32.85
2019-03-10T14:27:07.715Z,33.05
2019-03-10T14:29:46.985Z,31.41
2019-03-10T14:32:20.162Z,31.41
2019-03-10T14:34:54.749Z,32.10
2019-03-10T14:37:29.052Z,32.33
2019-03-10T14:40:09.402Z,32.33
2019-03-10T14:42:43.265Z,32.88
2019-03-10T14:45:25.303Z,32.91
2019-03-10T14:48:09.047Z,33.52
2019-03-10T14:50:37.911Z,33.52
2019-03-10T14:53:09.798Z,30.74
2019-03-10T14:55:42.459Z,30.74
2019-03-10T14:58:15.617Z,30.19
2019-03-10T15:00:48.511Z,30.19
2019-03-10T15:03:26.075Z,29.96
2019-03-10T15:06:02.543Z,30.03
2019-03-10T15:08:35.822Z,30.63
2019-03-10T15:11:13.872Z,27.62
2019-03-10T15:13:47.481Z,27.62
2019-03-10T15:16:20.410Z,29.35
2019-03-10T15:18:54.177Z,28.30
2019-03-10T15:21:26.736Z,28.30
2019-03-10T15:24:01.503Z,28.50
2019-03-10T15:26:44.928Z,28.98
2019-03-10T15:29:17.007Z,29.60
2019-03-10T15:31:47.147Z,30.62
2019-03-10T15:34:24.708Z,30.39
2019-03-10T15:36:58.323Z,30.51
2019-03-10T15:39:36.451Z,30.39
2019-03-10T15:42:08.708Z,29.98
2019-03-10T15:44:41.852Z,29.83
2019-03-10T15:47:19.164Z,29.63
2019-03-10T15:49:56.287Z,29.86
2019-03-10T15:52:28.195Z,30.24
2019-03-10T15:55:09.701Z,30.40
2019-03-10T15:57:50.319Z,29.95
2019-03-10T16:00:22.025Z,30.77
2019-03-10T16:02:55.383Z,30.13
2019-03-10T16:05:27.643Z,30.20
2019-03-10T16:08:00.821Z,29.82
2019-03-10T16:10:37.899Z,30.09
2019-03-10T16:13:14.856Z,30.35
2019-03-10T16:15:46.758Z,29.85
2019-03-10T16:18:24.235Z,30.19
2019-03-10T16:20:56.130Z,30.00
2019-03-10T16:23:30.291Z,30.10
2019-03-10T16:26:11.110Z,29.87
2019-03-10T16:28:48.062Z,29.05
2019-03-10T16:31:23.491Z,29.98
2019-03-10T16:34:01.150Z,29.29
2019-03-10T16:36:37.412Z,29.44
2019-03-10T16:39:12.816Z,29.71
2019-03-10T16:41:46.484Z,29.93
2019-03-10T16:44:19.651Z,30.50
2019-03-10T16:46:55.592Z,30.88
2019-03-10T16:49:27.981Z,30.76
2019-03-10T16:52:03.988Z,30.37
2019-03-10T16:54:37.472Z,30.82
2019-03-10T16:57:12.258Z,30.97
2019-03-10T16:59:47.833Z,30.88
2019-03-10T17:02:22.679Z,30.84
2019-03-10T17:04:54.441Z,30.64
2019-03-10T17:07:30.028Z,30.31
2019-03-10T17:10:03.365Z,30.50
2019-03-10T17:12:38.527Z,30.54
2019-03-10T17:15:18.509Z,30.87
2019-03-10T17:17:54.527Z,30.51
2019-03-10T17:20:29.164Z,29.88
2019-03-10T17:23:20.990Z,29.37
2019-03-10T17:25:55.178Z,29.17
2019-03-10T17:28:26.149Z,29.53
2019-03-10T17:31:00.843Z,27.45
2019-03-10T17:33:31.766Z,27.45
2019-03-10T17:36:04.761Z,28.28
2019-03-10T17:38:43.261Z,30.80
2019-03-10T17:41:19.188Z,32.30
2019-03-10T17:43:52.064Z,33.52
2019-03-10T17:46:23.835Z,34.36
2019-03-10T17:49:00.631Z,35.61
2019-03-10T17:51:54.245Z,37.11
2019-03-10T17:54:20.616Z,37.91
2019-03-10T17:56:57.129Z,38.57
2019-03-10T17:59:33.909Z,39.33
2019-03-10T18:02:10.080Z,40.27
2019-03-10T18:04:47.185Z,41.51
2019-03-10T18:07:23.167Z,42.63
2019-03-10T18:09:58.444Z,45.17
2019-03-10T18:12:30.287Z,46.95
2019-03-10T18:17:57.755Z,48.81
2019-03-10T18:20:48.602Z,49.34
2019-03-10T18:23:20.386Z,48.77
2019-03-10T18:26:27.125Z,50.53
2019-03-10T18:28:46.295Z,51.84
2019-03-10T18:37:37.462Z,51.10
2019-03-10T18:40:12.653Z,50.51
2019-03-10T18:42:43.670Z,49.44
2019-03-10T18:48:26.860Z,48.62
2019-03-10T18:51:51.506Z,48.36
2019-03-10T18:54:10.374Z,48.05
2019-03-10T18:57:20.170Z,48.20
2019-03-10T18:59:54.555Z,48.14
2019-03-10T19:02:27.706Z,47.26
2019-03-10T19:04:59.373Z,46.19
2019-03-10T19:07:31.173Z,46.27
2019-03-10T19:10:37.418Z,45.91
2019-03-10T19:15:59.068Z,43.67
2019-03-10T19:21:53.530Z,41.80
2019-03-10T19:24:40.709Z,42.42
2019-03-10T19:27:31.441Z,42.42
2019-03-10T19:33:15.559Z,42.85
2019-03-10T19:39:01.929Z,41.64
2019-03-10T19:45:42.301Z,41.22
2019-03-10T19:49:08.269Z,41.20
2019-03-10T19:51:47.910Z,41.02
2019-03-10T19:54:55.342Z,41.03
2019-03-10T20:00:59.207Z,41.82
2019-03-10T20:03:31.305Z,41.95
2019-03-10T20:06:22.349Z,41.18
2019-03-10T20:09:13.533Z,41.07
2019-03-10T20:14:54.535Z,41.15
2019-03-10T20:17:26.496Z,40.25
2019-03-10T20:20:39.792Z,39.33
2019-03-10T20:23:11.286Z,39.11
2019-03-10T20:26:02.035Z,38.34
2019-03-10T20:31:38.192Z,38.56
2019-03-10T20:34:31.175Z,39.03
2019-03-10T20:40:56.594Z,38.96
2019-03-10T20:43:47.360Z,41.49
2019-03-10T20:46:30.645Z,41.58
2019-03-10T20:52:08.705Z,42.71
2019-03-10T20:57:23.949Z,42.95
2019-03-10T21:02:43.476Z,42.86
2019-03-10T21:05:34.243Z,44.12
2019-03-10T21:10:48.559Z,44.50
2019-03-10T21:13:19.328Z,44.45
2019-03-10T21:15:52.061Z,44.82
2019-03-10T21:25:38.891Z,44.15
2019-03-10T21:31:10.248Z,45.89
2019-03-10T21:34:01.290Z,46.44
2019-03-10T21:36:53.120Z,46.56
2019-03-10T21:39:34.129Z,46.21
2019-03-10T21:42:15.636Z,46.53
2019-03-10T21:45:06.477Z,46.96
2019-03-10T21:56:57.315Z,46.00
2019-03-10T22:00:07.102Z,45.90
2019-03-10T22:03:31.159Z,45.90
2019-03-10T22:09:12.453Z,45.33
2019-03-10T22:12:21.192Z,45.96
2019-03-10T22:21:02.033Z,54.77
2019-03-10T22:23:59.330Z,54.38
2019-03-10T22:26:32.209Z,54.24
2019-03-10T22:29:44.164Z,55.11
2019-03-10T22:35:25.429Z,57.35
2019-03-10T22:38:08.335Z,58.62
2019-03-10T22:41:10.908Z,57.64
2019-03-10T22:43:33.877Z,57.03
2019-03-10T22:49:15.357Z,53.57
2019-03-10T22:51:47.417Z,52.71
2019-03-10T22:54:37.211Z,52.10
2019-03-10T23:00:26.682Z,51.58
2019-03-10T23:03:35.790Z,51.88
2019-03-10T23:06:26.608Z,51.00
2019-03-10T23:09:16.549Z,51.62
2019-03-10T23:12:06.149Z,52.17
2019-03-10T23:14:53.269Z,51.59
2019-03-10T23:17:25.192Z,51.52
2019-03-10T23:19:56.970Z,51.41
2019-03-10T23:25:38.495Z,51.80
2019-03-10T23:28:28.089Z,51.86
2019-03-10T23:31:18.847Z,51.69
2019-03-10T23:33:50.838Z,51.37
2019-03-10T23:36:22.885Z,51.26
2019-03-10T23:38:54.590Z,50.30
2019-03-10T23:41:45.349Z,49.99
2019-03-10T23:44:36.210Z,49.78
2019-03-10T23:47:26.161Z,50.18
2019-03-10T23:49:56.999Z,50.13
2019-03-10T23:52:29.276Z,49.94
2019-03-10T23:55:20.080Z,49.87
2019-03-10T23:57:51.845Z,50.03
